Time;durP1;ratioP1;P1;durP2;ratioP2;P2;SDS_P1;SDS_P2;PMS_P1;PMS_P2;Temp;Humidity;BMP_temperature;BMP_pressure;BME280_temperature;BME280_humidity;BME280_pressure;Samples;Min_cycle;Max_cycle;Signal;HPM_P1;HPM_P2
2023/12/19 00:00:09;;;;;;;68.38;46.45;;;;;;;2.64;70.57;95835.16;4164831;28;20547;-68
2023/12/19 00:02:11;;;;;;;78.53;51.92;;;;;;;2.65;71.06;95840.25;4166417;28;20477;-68
2023/12/19 00:04:14;;;;;;;67.88;47.25;;;;;;;2.53;71.24;95851.25;4172765;28;20076;-68
2023/12/19 00:06:16;;;;;;;69.17;47.70;;;;;;;2.47;71.51;95841.22;4176863;28;20120;-69
2023/12/19 00:08:18;;;;;;;66.90;47.72;;;;;;;2.56;71.66;95845.94;4175084;28;20500;-68
2023/12/19 00:10:20;;;;;;;68.45;47.63;;;;;;;2.59;71.31;95844.94;4173948;28;20132;-66
2023/12/19 00:12:22;;;;;;;55.55;41.35;;;;;;;2.57;70.66;95841.59;4188567;28;20051;-67
2023/12/19 00:14:24;;;;;;;54.08;38.67;;;;;;;2.61;70.76;95848.25;4170717;28;20053;-69
2023/12/19 00:16:26;;;;;;;56.72;37.92;;;;;;;2.56;70.64;95845.94;4172552;28;20064;-68
2023/12/19 00:18:30;;;;;;;54.97;39.70;;;;;;;2.50;70.94;95845.41;4175525;28;20134;-66
2023/12/19 00:20:32;;;;;;;56.78;40.53;;;;;;;2.59;70.61;95850.91;4178911;28;20564;-68
2023/12/19 00:22:35;;;;;;;57.50;41.83;;;;;;;2.47;70.65;95843.81;4172671;28;20050;-67
2023/12/19 00:24:39;;;;;;;55.33;40.08;;;;;;;2.52;70.86;95854.75;4170645;28;20076;-69
2023/12/19 00:26:41;;;;;;;58.53;39.05;;;;;;;2.33;70.73;95847.13;4182997;28;20498;-69
2023/12/19 00:28:44;;;;;;;62.35;40.30;;;;;;;2.30;71.07;95851.63;4174262;28;20493;-69
2023/12/19 00:30:46;;;;;;;60.45;41.63;;;;;;;2.24;71.54;95847.63;4150096;28;20042;-68
2023/12/19 00:32:48;;;;;;;56.60;41.80;;;;;;;2.08;71.11;95847.56;4174806;28;20058;-69
2023/12/19 00:34:50;;;;;;;62.38;42.05;;;;;;;1.91;72.04;95861.34;4175183;28;20052;-69
2023/12/19 00:36:52;;;;;;;55.08;39.42;;;;;;;2.05;72.31;95868.41;4178128;28;20052;-68
2023/12/19 00:38:54;;;;;;;62.60;43.22;;;;;;;2.21;71.97;95860.69;4176758;28;20115;-68
2023/12/19 00:40:56;;;;;;;65.97;44.58;;;;;;;2.35;71.95;95866.00;4172875;28;20052;-68
2023/12/19 00:42:57;;;;;;;65.13;48.70;;;;;;;2.40;70.88;95855.41;4175166;28;20140;-69
2023/12/19 00:45:00;;;;;;;65.25;47.20;;;;;;;2.26;70.84;95856.16;4174857;28;20489;-67
2023/12/19 00:47:02;;;;;;;73.50;52.42;;;;;;;2.27;71.59;95860.38;4179334;28;20041;-67
2023/12/19 00:49:04;;;;;;;65.90;47.85;;;;;;;2.38;71.50;95850.31;4175895;28;20052;-68
2023/12/19 00:51:12;;;;;;;64.82;46.55;;;;;;;2.48;70.74;95855.00;4174432;28;20129;-68
2023/12/19 00:53:14;;;;;;;64.60;46.45;;;;;;;2.54;70.17;95849.50;4175270;28;20056;-69
2023/12/19 00:55:16;;;;;;;64.10;45.90;;;;;;;2.61;70.42;95845.69;4176424;28;20049;-68
2023/12/19 00:57:18;;;;;;;66.20;47.58;;;;;;;2.68;70.15;95854.78;4174875;28;20053;-68
2023/12/19 00:59:20;;;;;;;66.07;47.53;;;;;;;2.65;70.07;95834.25;4168714;28;20135;-68
2023/12/19 01:01:23;;;;;;;65.85;47.25;;;;;;;2.74;69.50;95845.84;4171861;28;20478;-68
2023/12/19 01:03:25;;;;;;;63.78;45.55;;;;;;;2.75;69.52;95840.56;4171584;28;20143;-69
2023/12/19 01:05:27;;;;;;;61.67;44.80;;;;;;;2.75;69.09;95837.16;4166051;28;20077;-66
2023/12/19 01:07:29;;;;;;;63.55;46.05;;;;;;;2.58;69.69;95841.50;4166105;28;20057;-68
2023/12/19 01:09:31;;;;;;;63.08;46.03;;;;;;;2.45;70.12;95843.06;4175622;28;20080;-68
2023/12/19 01:11:33;;;;;;;72.70;50.25;;;;;;;2.31;70.46;95837.81;4178510;28;20049;-69
2023/12/19 01:13:38;;;;;;;76.20;52.00;;;;;;;2.23;70.81;95825.25;4176732;28;20439;-68
2023/12/19 01:15:40;;;;;;;77.78;55.85;;;;;;;2.27;70.86;95826.78;4177257;28;20060;-70
2023/12/19 01:17:42;;;;;;;77.03;55.42;;;;;;;2.17;70.98;95826.44;4172855;28;20049;-68
2023/12/19 01:19:44;;;;;;;80.40;55.85;;;;;;;2.03;70.72;95834.88;4176884;28;20100;-68
2023/12/19 01:21:47;;;;;;;81.93;54.80;;;;;;;1.98;70.92;95825.69;4177833;28;20045;-68
2023/12/19 01:23:49;;;;;;;73.82;52.88;;;;;;;1.95;70.63;95820.69;4178352;28;20049;-68
2023/12/19 01:25:51;;;;;;;65.35;50.15;;;;;;;2.03;70.48;95824.56;4163419;28;20045;-67
2023/12/19 01:27:52;;;;;;;71.25;51.53;;;;;;;1.93;71.28;95825.09;4176453;28;20044;-68
2023/12/19 01:29:54;;;;;;;72.82;54.35;;;;;;;1.90;71.51;95823.53;4172661;28;20365;-68
2023/12/19 01:31:59;;;;;;;75.43;53.85;;;;;;;1.88;71.57;95820.19;4176006;28;20048;-67
2023/12/19 01:34:01;;;;;;;75.63;53.15;;;;;;;1.95;71.30;95821.53;4172497;28;20081;-64
2023/12/19 01:36:03;;;;;;;79.55;55.03;;;;;;;2.16;70.45;95821.34;4177543;28;20163;-68
2023/12/19 01:38:05;;;;;;;75.47;53.70;;;;;;;2.16;70.14;95819.59;4178418;28;20129;-68
2023/12/19 01:40:08;;;;;;;73.57;54.38;;;;;;;2.10;70.25;95813.91;4175862;28;20080;-66
2023/12/19 01:42:10;;;;;;;76.47;54.47;;;;;;;2.16;70.65;95822.16;4152659;28;20042;-67
2023/12/19 01:44:19;;;;;;;65.20;47.85;;;;;;;2.23;70.07;95820.09;4172420;28;20053;-67
2023/12/19 01:46:21;;;;;;;71.95;49.55;;;;;;;2.17;70.03;95820.41;4175492;28;20384;-69
2023/12/19 01:48:24;;;;;;;68.40;46.72;;;;;;;2.05;70.25;95822.72;4172714;28;20100;-67
2023/12/19 01:50:26;;;;;;;71.25;47.08;;;;;;;2.10;70.64;95822.47;4161619;28;20061;-68
2023/12/19 01:52:28;;;;;;;72.60;48.92;;;;;;;2.05;70.46;95812.38;4162930;28;20160;-67
2023/12/19 01:54:30;;;;;;;66.05;47.83;;;;;;;2.05;70.68;95814.97;4169778;28;20670;-68
2023/12/19 01:56:33;;;;;;;69.50;48.70;;;;;;;1.96;70.93;95818.03;4160142;28;20095;-66
2023/12/19 01:58:35;;;;;;;63.67;46.88;;;;;;;1.90;71.07;95818.34;4176029;28;20063;-67
2023/12/19 02:00:37;;;;;;;62.60;45.75;;;;;;;2.02;71.58;95809.97;4176234;28;20135;-69
2023/12/19 02:02:40;;;;;;;65.03;46.75;;;;;;;2.22;70.98;95813.25;4171816;28;20050;-68
2023/12/19 02:04:43;;;;;;;62.95;46.00;;;;;;;2.33;70.79;95810.94;4175248;28;20491;-66
2023/12/19 02:06:45;;;;;;;53.92;39.35;;;;;;;2.40;70.00;95801.94;4184480;28;20040;-68
2023/12/19 02:08:48;;;;;;;51.08;36.25;;;;;;;2.49;70.40;95810.94;4168759;28;20136;-68
2023/12/19 02:10:50;;;;;;;49.35;36.30;;;;;;;2.57;69.82;95803.59;4170818;28;20496;-68
2023/12/19 02:12:52;;;;;;;57.30;40.08;;;;;;;2.52;69.56;95804.75;4172696;28;20052;-68
2023/12/19 02:14:54;;;;;;;53.65;39.03;;;;;;;2.54;69.52;95801.19;4167199;28;20139;-66
2023/12/19 02:16:56;;;;;;;54.90;39.72;;;;;;;2.42;69.53;95794.09;4174821;28;20059;-64
2023/12/19 02:19:04;;;;;;;58.20;39.90;;;;;;;2.50;70.37;95798.88;4175434;28;20049;-65
2023/12/19 02:21:07;;;;;;;53.38;39.22;;;;;;;2.39;70.46;95800.28;4160298;28;20046;-67
2023/12/19 02:23:12;;;;;;;53.72;40.28;;;;;;;2.32;70.43;95796.31;4172648;28;20466;-68
2023/12/19 02:25:14;;;;;;;59.78;44.08;;;;;;;2.25;70.02;95792.41;4179761;28;20131;-67
2023/12/19 02:27:20;;;;;;;60.50;43.50;;;;;;;2.28;69.73;95792.25;4170147;28;20099;-68
2023/12/19 02:29:21;;;;;;;59.13;44.03;;;;;;;2.39;70.23;95794.28;4172895;28;20400;-66
2023/12/19 02:31:23;;;;;;;62.28;43.45;;;;;;;2.45;70.91;95797.34;4175124;28;20135;-68
2023/12/19 02:33:25;;;;;;;61.35;44.40;;;;;;;2.49;70.67;95792.84;4172662;28;20493;-65
2023/12/19 02:35:28;;;;;;;64.13;45.45;;;;;;;2.62;71.14;95791.28;4175286;28;20049;-67
2023/12/19 02:37:29;;;;;;;61.33;45.30;;;;;;;2.64;70.96;95789.41;4177893;28;20124;-66
2023/12/19 02:39:31;;;;;;;64.15;44.58;;;;;;;2.64;70.69;95789.41;4172272;28;20049;-65
2023/12/19 02:41:33;;;;;;;62.17;43.28;;;;;;;2.66;70.96;95794.50;4175768;28;20045;-69
2023/12/19 02:43:35;;;;;;;56.00;41.40;;;;;;;2.53;70.35;95788.34;4176390;28;20049;-65
2023/12/19 02:45:53;;;;;;;54.72;38.55;;;;;;;2.38;69.89;95787.41;4176788;28;20041;-68
2023/12/19 02:47:55;;;;;;;53.40;37.00;;;;;;;2.40;70.33;95790.75;4176172;28;20524;-68
2023/12/19 02:49:57;;;;;;;47.42;34.08;;;;;;;2.24;70.38;95783.81;4173026;28;20399;-68
2023/12/19 02:51:59;;;;;;;45.90;32.78;;;;;;;2.15;70.26;95793.78;4168882;28;20103;-67
2023/12/19 02:54:01;;;;;;;45.50;31.48;;;;;;;1.96;70.27;95779.28;4166832;28;20463;-66
2023/12/19 02:56:03;;;;;;;39.72;28.83;;;;;;;1.89;70.85;95784.81;4165973;28;20500;-64
2023/12/19 02:58:04;;;;;;;36.78;27.52;;;;;;;1.87;71.18;95786.66;4169601;28;20061;-68
2023/12/19 03:00:07;;;;;;;42.10;29.00;;;;;;;1.68;71.29;95781.59;4174668;28;20049;-67
2023/12/19 03:02:09;;;;;;;40.03;28.42;;;;;;;1.79;71.42;95776.72;4170342;28;20285;-68
2023/12/19 03:04:11;;;;;;;43.10;30.67;;;;;;;1.68;71.44;95779.88;4171336;28;20077;-68
2023/12/19 03:06:14;;;;;;;44.17;30.77;;;;;;;1.64;71.47;95786.09;4164688;28;20049;-70
2023/12/19 03:08:16;;;;;;;40.95;29.70;;;;;;;1.72;70.97;95777.94;4170962;28;20056;-66
2023/12/19 03:10:18;;;;;;;43.20;31.25;;;;;;;1.84;70.70;95772.97;4170984;28;20053;-68
2023/12/19 03:12:20;;;;;;;52.67;35.30;;;;;;;1.75;70.27;95788.13;4173972;28;20070;-68
2023/12/19 03:14:22;;;;;;;47.90;33.97;;;;;;;1.61;71.20;95792.25;4175447;28;20392;-70
2023/12/19 03:16:24;;;;;;;52.58;37.50;;;;;;;1.36;71.67;95784.91;4173192;28;20124;-68
2023/12/19 03:18:26;;;;;;;47.03;34.60;;;;;;;1.26;72.37;95780.28;4165414;28;20053;-68
2023/12/19 03:20:28;;;;;;;54.15;36.67;;;;;;;1.24;73.11;95790.66;4172629;28;20065;-68
2023/12/19 03:22:30;;;;;;;52.83;39.42;;;;;;;1.38;73.27;95787.41;4174715;28;20108;-65
2023/12/19 03:24:32;;;;;;;52.88;36.80;;;;;;;1.42;72.58;95789.78;4162416;28;20112;-68
2023/12/19 03:26:34;;;;;;;53.80;38.53;;;;;;;1.40;72.03;95789.00;4165575;28;20044;-67
2023/12/19 03:28:37;;;;;;;59.85;43.03;;;;;;;1.47;72.41;95784.38;4166642;28;20758;-68
2023/12/19 03:30:39;;;;;;;53.22;36.45;;;;;;;1.61;71.35;95781.94;4166743;28;20142;-66
2023/12/19 03:32:41;;;;;;;54.20;38.22;;;;;;;1.64;70.94;95781.75;4167842;28;20041;-67
2023/12/19 03:34:44;;;;;;;63.22;43.28;;;;;;;1.62;71.88;95783.59;4173315;28;20103;-69
2023/12/19 03:36:46;;;;;;;66.88;46.90;;;;;;;1.60;70.64;95787.16;4180506;28;20052;-69
2023/12/19 03:38:49;;;;;;;71.18;49.20;;;;;;;1.67;70.42;95785.09;4179995;28;20463;-69
2023/12/19 03:40:51;;;;;;;64.05;45.33;;;;;;;1.64;70.78;95778.34;4178857;28;20465;-69
2023/12/19 03:42:52;;;;;;;64.25;43.53;;;;;;;1.71;70.84;95787.44;4187888;28;20058;-70
2023/12/19 03:44:54;;;;;;;59.50;40.47;;;;;;;1.61;70.08;95787.09;4167567;28;20048;-70
2023/12/19 03:46:56;;;;;;;62.72;42.30;;;;;;;1.64;70.45;95792.09;4179178;28;20041;-70
2023/12/19 03:48:58;;;;;;;61.53;43.92;;;;;;;1.57;69.89;95787.31;4179278;28;20132;-67
2023/12/19 03:51:00;;;;;;;65.82;45.40;;;;;;;1.63;69.46;95780.09;4177025;28;20056;-67
2023/12/19 03:53:02;;;;;;;56.53;40.50;;;;;;;1.55;69.16;95782.25;4179536;28;20049;-69
2023/12/19 03:55:05;;;;;;;53.92;39.92;;;;;;;1.50;69.77;95786.78;4177989;28;20052;-69
2023/12/19 03:57:07;;;;;;;63.97;44.20;;;;;;;1.44;69.68;95779.34;4179783;28;20423;-69
2023/12/19 03:59:10;;;;;;;71.05;49.67;;;;;;;1.51;70.78;95767.81;4167831;28;20100;-69
2023/12/19 04:01:12;;;;;;;80.53;52.70;;;;;;;1.67;71.70;95769.59;4174816;28;20461;-71
2023/12/19 04:03:14;;;;;;;77.40;52.97;;;;;;;1.82;71.86;95758.47;4164000;28;20050;-70
2023/12/19 04:05:16;;;;;;;74.47;51.83;;;;;;;1.98;71.08;95753.31;4164688;28;20059;-71
2023/12/19 04:07:18;;;;;;;83.60;56.40;;;;;;;2.09;71.44;95755.34;4165571;28;20095;-66
2023/12/19 04:09:20;;;;;;;83.93;58.15;;;;;;;1.97;71.05;95752.50;4168275;28;20163;-67
2023/12/19 04:11:23;;;;;;;91.85;63.22;;;;;;;1.90;72.16;95755.50;4177905;28;20127;-68
2023/12/19 04:13:24;;;;;;;98.30;63.47;;;;;;;1.83;72.09;95755.00;4177124;28;20084;-68
2023/12/19 04:15:26;;;;;;;90.38;61.78;;;;;;;1.68;72.20;95750.59;4168370;28;20123;-68
2023/12/19 04:17:28;;;;;;;95.80;64.75;;;;;;;1.41;72.38;95751.09;4187940;28;20506;-68
2023/12/19 04:19:30;;;;;;;94.78;63.63;;;;;;;1.38;72.94;95764.19;4178970;28;20124;-69
2023/12/19 04:21:32;;;;;;;96.97;66.57;;;;;;;1.27;73.05;95761.28;4178330;28;20400;-67
2023/12/19 04:23:34;;;;;;;97.43;66.95;;;;;;;1.22;73.74;95759.75;4178860;28;20124;-67
2023/12/19 04:25:36;;;;;;;103.07;69.93;;;;;;;1.32;73.74;95761.91;4177045;28;20045;-67
2023/12/19 04:27:38;;;;;;;103.88;71.38;;;;;;;1.35;73.41;95759.97;4178128;28;20052;-67
2023/12/19 04:29:40;;;;;;;104.72;68.95;;;;;;;1.40;73.52;95762.38;4164769;28;20222;-68
2023/12/19 04:31:42;;;;;;;100.15;65.75;;;;;;;1.52;72.82;95759.13;4173485;28;20368;-68
2023/12/19 04:33:44;;;;;;;92.38;63.28;;;;;;;1.59;71.54;95770.84;4174116;28;20053;-69
2023/12/19 04:35:46;;;;;;;89.38;60.50;;;;;;;1.66;71.51;95767.91;4164016;28;20053;-69
2023/12/19 04:37:48;;;;;;;88.78;60.88;;;;;;;1.61;71.11;95778.50;4178697;28;20192;-68
2023/12/19 04:39:50;;;;;;;86.25;59.80;;;;;;;1.70;70.87;95777.19;4176673;28;20060;-68
2023/12/19 04:41:52;;;;;;;88.22;59.53;;;;;;;1.69;70.25;95778.13;4179276;28;20037;-67
2023/12/19 04:43:54;;;;;;;86.50;59.47;;;;;;;1.53;70.34;95778.06;4167801;28;20099;-69
2023/12/19 04:45:56;;;;;;;87.55;59.20;;;;;;;1.52;71.48;95790.13;4170537;28;20120;-69
2023/12/19 04:47:58;;;;;;;94.72;62.30;;;;;;;1.48;71.28;95782.63;4167826;28;20085;-68
2023/12/19 04:50:00;;;;;;;91.38;61.97;;;;;;;1.35;71.44;95785.81;4167824;28;20056;-69
2023/12/19 04:52:03;;;;;;;88.40;62.17;;;;;;;1.26;71.58;95788.03;4188697;28;20052;-68
2023/12/19 04:54:08;;;;;;;91.80;59.35;;;;;;;1.37;72.31;95793.47;4174663;28;20481;-67
2023/12/19 04:56:11;;;;;;;86.45;58.63;;;;;;;1.42;71.58;95794.09;4177261;28;20353;-68
2023/12/19 04:58:13;;;;;;;83.93;57.97;;;;;;;1.55;70.69;95786.53;4167282;28;20063;-67
2023/12/19 05:00:15;;;;;;;86.65;58.38;;;;;;;1.54;70.22;95783.13;4166781;28;20438;-70
2023/12/19 05:02:17;;;;;;;89.10;57.70;;;;;;;1.62;69.71;95790.50;4167238;28;20092;-69
2023/12/19 05:04:19;;;;;;;77.75;54.70;;;;;;;1.68;69.16;95794.50;4177562;28;20057;-68
2023/12/19 05:06:21;;;;;;;77.65;54.22;;;;;;;1.66;69.33;95788.59;4175439;28;20067;-68
2023/12/19 05:08:23;;;;;;;76.72;53.80;;;;;;;1.73;69.28;95802.88;4166948;28;20501;-69
2023/12/19 05:10:24;;;;;;;79.25;53.78;;;;;;;1.68;69.07;95795.38;4167856;28;20053;-69
2023/12/19 05:12:26;;;;;;;81.22;55.03;;;;;;;1.69;68.51;95789.28;4178804;28;20552;-67
2023/12/19 05:14:28;;;;;;;86.20;56.53;;;;;;;1.68;68.61;95787.63;4169536;28;20136;-69
2023/12/19 05:16:30;;;;;;;75.38;51.92;;;;;;;1.68;69.13;95792.78;4178776;28;20451;-69
2023/12/19 05:18:32;;;;;;;75.97;53.63;;;;;;;1.61;68.63;95797.44;4176672;28;20081;-68
2023/12/19 05:20:34;;;;;;;75.07;53.25;;;;;;;1.51;70.08;95785.06;4176396;28;20148;-69
2023/12/19 05:22:36;;;;;;;83.85;55.33;;;;;;;1.51;70.50;95793.63;4177319;28;20049;-70
2023/12/19 05:24:38;;;;;;;80.40;53.95;;;;;;;1.38;70.77;95795.16;4173220;28;20124;-70
2023/12/19 05:26:40;;;;;;;81.68;54.42;;;;;;;1.30;70.81;95803.28;4165500;28;20045;-69
2023/12/19 05:28:42;;;;;;;77.28;53.03;;;;;;;1.16;71.06;95788.47;4170673;28;20057;-68
2023/12/19 05:30:44;;;;;;;83.05;55.58;;;;;;;1.21;72.34;95798.56;4174274;28;20152;-69
2023/12/19 05:32:46;;;;;;;82.32;56.63;;;;;;;1.02;72.35;95790.88;4167332;28;20416;-69
2023/12/19 05:34:48;;;;;;;81.70;53.65;;;;;;;1.06;71.23;95789.00;4177880;28;20053;-68
2023/12/19 05:36:50;;;;;;;76.75;53.60;;;;;;;1.08;70.87;95787.19;4176688;28;20072;-71
2023/12/19 05:38:52;;;;;;;77.80;52.67;;;;;;;1.17;70.65;95797.88;4176571;28;20060;-69
2023/12/19 05:40:57;;;;;;;76.32;51.78;;;;;;;1.21;70.19;95791.66;4176682;28;20045;-71
2023/12/19 05:42:59;;;;;;;79.80;53.70;;;;;;;1.20;70.76;95795.13;4168735;28;20050;-69
2023/12/19 05:45:03;;;;;;;75.70;53.58;;;;;;;1.21;71.12;95796.81;4168249;28;20124;-69
2023/12/19 05:47:04;;;;;;;;;;;;;;;1.33;69.18;95797.13;4170183;28;20051;-69
2023/12/19 05:49:06;;;;;;;80.97;51.47;;;;;;;1.30;69.44;95795.53;4177969;28;20291;-69
2023/12/19 05:51:08;;;;;;;78.15;52.20;;;;;;;1.34;69.49;95799.63;4176821;28;20045;-69
2023/12/19 05:53:10;;;;;;;72.70;51.58;;;;;;;1.28;68.88;95809.44;4177290;28;20291;-71
2023/12/19 05:55:12;;;;;;;70.90;51.53;;;;;;;1.22;69.52;95803.63;4176718;28;20056;-70
2023/12/19 05:57:14;;;;;;;75.18;53.10;;;;;;;1.40;71.47;95808.84;4176494;28;20083;-70
2023/12/19 05:59:16;;;;;;;76.93;53.95;;;;;;;1.54;72.00;95802.97;4176886;28;20507;-69
2023/12/19 06:01:18;;;;;;;75.18;53.28;;;;;;;1.70;71.42;95795.28;4177707;28;20407;-70
2023/12/19 06:03:20;;;;;;;78.00;52.97;;;;;;;1.78;71.01;95793.13;4175271;28;20430;-69
2023/12/19 06:05:24;;;;;;;79.55;55.30;;;;;;;1.91;70.93;95789.00;4176968;28;20045;-70
2023/12/19 06:07:26;;;;;;;79.63;55.53;;;;;;;1.96;70.37;95779.28;4174000;28;20036;-70
2023/12/19 06:09:28;;;;;;;74.28;54.35;;;;;;;1.98;70.91;95786.94;4165127;28;20126;-70
2023/12/19 06:11:30;;;;;;;80.82;55.72;;;;;;;2.02;70.73;95778.97;4166738;28;20060;-69
2023/12/19 06:13:32;;;;;;;76.45;54.42;;;;;;;2.01;69.99;95782.44;4174971;28;20051;-69
2023/12/19 06:15:34;;;;;;;80.40;54.92;;;;;;;2.04;69.52;95777.13;4177723;28;20100;-71
2023/12/19 06:17:42;;;;;;;80.20;56.17;;;;;;;2.09;68.99;95779.47;4175377;28;20128;-70
2023/12/19 06:19:44;;;;;;;81.43;58.33;;;;;;;2.09;68.95;95781.19;4176451;28;20049;-70
2023/12/19 06:21:46;;;;;;;83.55;60.33;;;;;;;1.83;70.51;95781.66;4177598;28;20047;-69
2023/12/19 06:23:48;;;;;;;82.55;58.58;;;;;;;1.88;71.52;95768.50;4177093;28;20430;-70
2023/12/19 06:25:50;;;;;;;86.65;62.33;;;;;;;1.93;70.73;95781.19;4174929;28;20057;-71
2023/12/19 06:27:55;;;;;;;89.45;61.22;;;;;;;1.91;71.35;95768.31;4163307;28;20051;-70
2023/12/19 06:29:57;;;;;;;87.63;59.22;;;;;;;2.03;70.95;95778.03;4176588;28;20513;-70
2023/12/19 06:32:01;;;;;;;;;;;;;;;2.40;69.87;95778.66;4170327;28;20519;-70
2023/12/19 06:34:04;;;;;;;83.35;57.25;;;;;;;2.99;68.88;95784.06;4172089;28;20028;-69
2023/12/19 06:36:06;;;;;;;83.25;56.55;;;;;;;3.48;67.31;95764.84;4167325;28;20151;-72
2023/12/19 06:38:08;;;;;;;83.72;57.13;;;;;;;3.73;64.84;95777.22;4177837;28;20048;-69
2023/12/19 06:40:10;;;;;;;76.95;54.00;;;;;;;3.77;63.76;95780.47;4167283;28;20084;-70
2023/12/19 06:42:12;;;;;;;73.35;52.53;;;;;;;3.62;64.10;95772.66;4178688;28;20120;-71
2023/12/19 06:44:14;;;;;;;76.28;54.08;;;;;;;3.40;64.86;95773.09;4174685;28;20048;-70
2023/12/19 06:46:17;;;;;;;82.03;55.13;;;;;;;3.25;66.25;95784.34;4172962;28;20049;-70
2023/12/19 06:48:23;;;;;;;78.20;57.63;;;;;;;3.21;66.51;95775.06;4178117;28;20067;-71
2023/12/19 06:50:25;;;;;;;85.95;58.85;;;;;;;3.01;65.66;95771.88;4169488;28;20485;-70
2023/12/19 06:52:28;;;;;;;83.97;57.83;;;;;;;2.81;66.20;95785.06;4192605;28;20123;-69
2023/12/19 06:54:32;;;;;;;85.37;59.63;;;;;;;2.60;66.92;95774.13;4169602;28;20140;-70
2023/12/19 06:56:34;;;;;;;85.32;60.28;;;;;;;2.65;67.42;95779.91;4168644;28;20282;-73
2023/12/19 06:58:35;;;;;;;85.53;61.53;;;;;;;2.60;68.09;95787.06;4176024;28;20056;-69
2023/12/19 07:00:39;;;;;;;90.55;61.47;;;;;;;2.47;68.95;95784.31;4164765;28;20124;-68
2023/12/19 07:02:42;;;;;;;86.95;61.22;;;;;;;2.43;69.14;95782.81;4172085;28;20110;-71
2023/12/19 07:04:44;;;;;;;90.45;62.78;;;;;;;2.63;69.62;95784.34;4171126;28;20068;-70
2023/12/19 07:06:46;;;;;;;90.90;63.95;;;;;;;2.60;68.42;95782.75;4172794;28;20542;-70
2023/12/19 07:08:48;;;;;;;88.70;62.03;;;;;;;2.44;68.70;95790.50;4178405;28;20049;-70
2023/12/19 07:10:54;;;;;;;92.67;60.83;;;;;;;2.32;69.27;95792.91;4166539;28;20045;-69
2023/12/19 07:12:56;;;;;;;93.35;61.53;;;;;;;2.34;69.40;95798.84;4165349;28;20057;-68
2023/12/19 07:14:58;;;;;;;89.70;62.08;;;;;;;2.10;69.49;95798.38;4165616;28;20056;-70
2023/12/19 07:17:01;;;;;;;90.60;60.90;;;;;;;2.23;70.34;95802.00;4175792;28;20056;-69
2023/12/19 07:19:04;;;;;;;97.28;64.82;;;;;;;2.28;69.77;95801.75;4179506;28;20053;-69
2023/12/19 07:21:06;;;;;;;94.63;63.67;;;;;;;2.40;69.54;95801.09;4180668;28;20040;-70
2023/12/19 07:23:08;;;;;;;86.80;61.80;;;;;;;2.41;69.48;95815.69;4177197;28;20570;-71
2023/12/19 07:25:10;;;;;;;89.80;62.38;;;;;;;2.34;69.62;95806.59;4165468;28;20145;-70
2023/12/19 07:27:12;;;;;;;89.15;62.60;;;;;;;2.60;69.87;95806.03;4172394;28;20531;-69
2023/12/19 07:29:14;;;;;;;84.22;60.25;;;;;;;2.71;68.81;95804.59;4177993;28;20052;-70
2023/12/19 07:31:20;;;;;;;87.30;58.72;;;;;;;2.73;67.88;95802.75;4169852;28;20067;-70
2023/12/19 07:33:23;;;;;;;86.28;59.60;;;;;;;2.93;68.34;95793.91;4170597;28;20523;-69
2023/12/19 07:35:25;;;;;;;86.15;60.83;;;;;;;3.02;67.33;95789.03;4177281;28;20057;-69
2023/12/19 07:37:34;;;;;;;84.50;61.10;;;;;;;3.11;66.58;95785.09;4175559;28;20041;-70
2023/12/19 07:39:38;;;;;;;88.03;59.25;;;;;;;3.25;66.52;95777.41;4173052;28;20057;-70
2023/12/19 07:41:40;;;;;;;80.90;59.10;;;;;;;3.43;66.31;95772.06;4193394;28;20048;-70
2023/12/19 07:43:43;;;;;;;85.68;60.08;;;;;;;3.52;65.03;95760.34;4172519;28;20049;-70
2023/12/19 07:45:45;;;;;;;94.97;65.32;;;;;;;3.57;65.49;95753.97;4171108;28;20053;-70
2023/12/19 07:47:47;;;;;;;94.70;65.50;;;;;;;3.61;65.76;95758.03;4172659;28;20073;-70
2023/12/19 07:49:49;;;;;;;90.80;65.25;;;;;;;3.61;65.18;95752.84;4173976;28;20137;-68
2023/12/19 07:51:51;;;;;;;89.45;63.85;;;;;;;3.55;64.72;95753.22;4174222;28;20140;-69
2023/12/19 07:53:56;;;;;;;87.50;60.92;;;;;;;3.58;64.45;95755.63;4178210;28;20043;-70
2023/12/19 07:56:00;;;;;;;87.78;62.92;;;;;;;3.50;65.67;95747.47;4169023;28;20124;-70
2023/12/19 07:58:02;;;;;;;94.57;66.18;;;;;;;3.72;65.85;95746.19;4187708;28;20044;-70
2023/12/19 08:00:05;;;;;;;88.40;63.88;;;;;;;3.83;64.80;95755.00;4173466;28;20388;-71
2023/12/19 08:02:07;;;;;;;87.55;63.97;;;;;;;3.76;63.93;95750.28;4174804;28;20041;-69
2023/12/19 08:04:08;;;;;;;96.88;66.75;;;;;;;3.79;64.94;95747.50;4173096;28;20045;-69
2023/12/19 08:06:11;;;;;;;84.68;60.83;;;;;;;3.82;65.98;95745.53;4173476;28;20048;-69
2023/12/19 08:08:13;;;;;;;88.90;62.20;;;;;;;3.94;65.79;95751.78;4174713;28;20049;-70
2023/12/19 08:10:15;;;;;;;89.47;64.18;;;;;;;3.74;66.48;95750.34;4168667;28;20061;-69
2023/12/19 08:12:17;;;;;;;95.88;68.43;;;;;;;3.68;67.43;95750.75;4162277;28;20065;-70
2023/12/19 08:14:19;;;;;;;95.97;68.10;;;;;;;3.73;67.31;95747.88;4177413;28;20048;-71
2023/12/19 08:16:21;;;;;;;101.43;69.38;;;;;;;3.91;67.15;95738.97;4172730;28;20052;-70
2023/12/19 08:18:23;;;;;;;99.07;69.07;;;;;;;3.98;66.37;95742.03;4162198;28;20053;-70
2023/12/19 08:20:25;;;;;;;102.25;71.63;;;;;;;4.00;66.65;95746.22;4174401;28;20133;-70
2023/12/19 08:22:27;;;;;;;110.10;72.75;;;;;;;4.10;66.62;95749.06;4185625;28;20052;-70
2023/12/19 08:24:29;;;;;;;101.93;71.75;;;;;;;3.93;66.57;95744.06;4166466;28;20060;-70
2023/12/19 08:26:31;;;;;;;109.15;72.95;;;;;;;4.05;67.24;95736.38;4165941;28;20182;-70
2023/12/19 08:28:33;;;;;;;110.25;73.30;;;;;;;4.25;67.56;95748.13;4181781;28;20076;-70
2023/12/19 08:30:35;;;;;;;115.55;74.40;;;;;;;4.23;66.35;95741.38;4163508;28;20080;-71
2023/12/19 08:32:37;;;;;;;116.97;72.35;;;;;;;4.20;66.47;95744.16;4166966;28;20407;-70
2023/12/19 08:34:40;;;;;;;122.30;74.10;;;;;;;4.36;66.91;95750.03;4171600;28;20464;-70
2023/12/19 08:36:44;;;;;;;128.13;71.38;;;;;;;4.53;65.24;95738.63;4180006;28;20053;-70
2023/12/19 08:38:45;;;;;;;117.38;72.45;;;;;;;4.71;65.42;95737.47;4177977;28;20057;-70
2023/12/19 08:40:47;;;;;;;114.18;69.88;;;;;;;4.88;64.31;95722.56;4177503;28;20199;-73
2023/12/19 08:42:49;;;;;;;101.57;64.50;;;;;;;5.01;64.07;95727.78;4179045;28;20048;-70
2023/12/19 08:44:51;;;;;;;84.57;57.85;;;;;;;5.00;63.92;95716.56;4177443;28;20041;-72
2023/12/19 08:46:53;;;;;;;91.35;57.33;;;;;;;4.95;64.09;95712.59;4179076;28;20383;-71
2023/12/19 08:48:55;;;;;;;85.70;57.83;;;;;;;4.90;64.12;95712.91;4179395;28;20131;-71
2023/12/19 08:50:57;;;;;;;85.85;57.05;;;;;;;4.80;64.22;95699.69;4177214;28;20684;-69
2023/12/19 08:52:59;;;;;;;85.00;58.10;;;;;;;4.92;64.15;95701.47;4146142;28;20042;-71
2023/12/19 08:55:01;;;;;;;76.40;51.33;;;;;;;5.17;63.42;95704.25;4162045;28;20052;-68
2023/12/19 08:57:04;;;;;;;76.38;54.35;;;;;;;5.39;61.98;95701.06;4162200;28;20053;-71
2023/12/19 08:59:06;;;;;;;74.85;53.15;;;;;;;5.62;62.52;95694.31;4176888;28;20053;-70
2023/12/19 09:01:09;;;;;;;76.18;54.08;;;;;;;5.75;61.77;95688.16;4179620;28;20077;-70
2023/12/19 09:03:11;;;;;;;76.85;52.30;;;;;;;5.78;61.20;95676.72;4178508;28;20126;-72
2023/12/19 09:05:14;;;;;;;77.10;53.08;;;;;;;5.86;60.77;95676.19;4182262;28;20049;-70
2023/12/19 09:07:16;;;;;;;80.45;54.55;;;;;;;5.67;61.51;95682.66;4168716;28;20061;-70
2023/12/19 09:09:18;;;;;;;89.28;57.22;;;;;;;5.45;62.61;95674.66;4167545;28;20053;-71
2023/12/19 09:11:20;;;;;;;94.30;64.07;;;;;;;5.27;62.60;95674.97;4179021;28;20049;-69
2023/12/19 09:13:22;;;;;;;108.63;70.05;;;;;;;5.27;62.89;95672.38;4179153;28;20045;-70
2023/12/19 09:15:25;;;;;;;116.88;77.18;;;;;;;5.33;63.33;95666.75;4177871;28;20543;-71
2023/12/19 09:17:27;;;;;;;110.53;74.50;;;;;;;5.44;63.34;95659.97;4173543;28;20049;-71
2023/12/19 09:19:30;;;;;;;120.88;75.15;;;;;;;5.71;62.89;95663.31;4178850;28;20047;-70
2023/12/19 09:21:32;;;;;;;125.15;81.47;;;;;;;5.67;62.42;95666.22;4177728;28;20471;-70
2023/12/19 09:23:34;;;;;;;138.27;87.65;;;;;;;5.78;62.31;95648.09;4174587;28;20048;-70
2023/12/19 09:25:40;;;;;;;139.93;85.65;;;;;;;6.00;61.67;95655.31;4163946;28;20132;-69
2023/12/19 09:27:42;;;;;;;137.55;85.95;;;;;;;5.92;61.05;95641.97;4175255;28;20051;-70